Terminal Aerodrome Forecast
Issued by NWS North Platte, NE

Home | Current Version | Previous Version | Text Only | Print | Product List | Glossary On
Versions: 1 2 3 4 5 6 7 8 9 10 11 12 13 14 15 16 17 18 19 20
000
FTUS43 KLBF 281700
TAFVTN
TAF
KVTN 281729Z 2818/2918 17012KT P6SM SKC
     FM281900 19017G28KT P6SM FEW100
     FM290300 28018G27KT P6SM BKN120
     FM290600 30011G20KT P6SM SCT120=

USA.gov is the U.S. government's official web portal to all federal, state and local government web resources and services.